Time;durP1;ratioP1;P1;durP2;ratioP2;P2;SDS_P1;SDS_P2;PMS_P1;PMS_P2;Temp;Humidity;BMP_temperature;BMP_pressure;BME280_temperature;BME280_humidity;BME280_pressure;Samples;Min_cycle;Max_cycle;Signal;HPM_P1;HPM_P2
2023/05/06 00:02:21;;;;;;;27.35;16.10;;;;;;;12.25;100.00;101314.94;4915421;29;20048;-77
2023/05/06 00:04:47;;;;;;;23.73;16.25;;;;;;;12.21;100.00;101309.81;4931097;29;20447;-77
2023/05/06 00:07:12;;;;;;;26.52;17.23;;;;;;;12.14;100.00;101315.78;4917277;29;20048;-77
2023/05/06 00:09:38;;;;;;;30.48;17.85;;;;;;;12.08;100.00;101310.75;4892486;29;20040;-78
2023/05/06 00:12:04;;;;;;;26.27;17.13;;;;;;;11.98;100.00;101298.75;4890532;29;20083;-78
2023/05/06 00:14:29;;;;;;;26.70;17.67;;;;;;;11.93;100.00;101298.25;4902189;29;20088;-78
2023/05/06 00:16:58;;;;;;;26.63;17.00;;;;;;;12.02;100.00;101294.81;4931039;29;20432;-78
2023/05/06 00:19:23;;;;;;;27.63;17.20;;;;;;;11.95;100.00;101288.91;4931054;29;20054;-76
2023/05/06 00:21:48;;;;;;;27.52;17.55;;;;;;;11.85;100.00;101278.75;4901350;29;20234;-77
2023/05/06 00:24:17;;;;;;;29.70;18.00;;;;;;;11.87;100.00;101287.72;4913627;29;20036;-76
2023/05/06 00:26:42;;;;;;;30.73;18.98;;;;;;;11.89;100.00;101292.09;4904171;29;20050;-77
2023/05/06 00:29:08;;;;;;;27.83;17.58;;;;;;;11.86;100.00;101286.84;4931829;29;20040;-77
2023/05/06 00:31:33;;;;;;;33.38;19.05;;;;;;;11.87;100.00;101288.63;4934711;29;20051;-77
2023/05/06 00:33:58;;;;;;;31.35;18.73;;;;;;;11.94;100.00;101289.03;4917442;29;20406;-76
2023/05/06 00:36:24;;;;;;;33.92;20.13;;;;;;;11.96;100.00;101284.28;4936428;29;20075;-77
2023/05/06 00:38:49;;;;;;;29.35;20.25;;;;;;;11.91;100.00;101281.00;4935419;29;20431;-77
2023/05/06 00:41:15;;;;;;;26.70;18.23;;;;;;;11.84;100.00;101283.34;4931118;29;20040;-77
2023/05/06 00:43:40;;;;;;;24.48;15.82;;;;;;;11.81;100.00;101280.00;4918866;29;20043;-76
2023/05/06 00:46:09;;;;;;;25.15;15.57;;;;;;;11.59;100.00;101270.66;4935562;29;20114;-76
2023/05/06 00:48:35;;;;;;;28.00;17.02;;;;;;;11.47;100.00;101277.09;4919191;29;20135;-76
2023/05/06 00:51:00;;;;;;;26.95;16.65;;;;;;;11.38;100.00;101284.16;4934454;29;20051;-77
2023/05/06 00:53:26;;;;;;;26.98;16.45;;;;;;;11.31;100.00;101285.59;4934990;29;20126;-76
2023/05/06 00:55:51;;;;;;;26.40;16.42;;;;;;;11.29;100.00;101291.19;4937345;29;20043;-76
2023/05/06 00:58:18;;;;;;;27.05;17.95;;;;;;;11.28;100.00;101288.56;4927832;29;20047;-77
2023/05/06 01:00:44;;;;;;;26.67;17.98;;;;;;;11.24;100.00;101298.03;4937972;29;20479;-77
2023/05/06 01:03:09;;;;;;;31.70;18.17;;;;;;;11.25;100.00;101289.69;4935123;29;20035;-77
2023/05/06 01:05:50;;;;;;;33.03;19.90;;;;;;;11.23;100.00;101283.41;4938110;29;20048;-77
2023/05/06 01:08:38;;;;;;;35.13;21.58;;;;;;;11.27;100.00;101282.22;4937643;29;20395;-77
2023/05/06 01:11:28;;;;;;;35.22;22.88;;;;;;;11.27;100.00;101281.34;4928976;29;20059;-77
2023/05/06 01:14:28;;;;;;;36.50;20.55;;;;;;;11.29;100.00;101276.63;4935262;29;20166;-77
2023/05/06 01:16:56;;;;;;;38.40;22.10;;;;;;;11.23;100.00;101275.19;4928261;29;20048;-77
2023/05/06 01:19:47;;;;;;;44.65;23.13;;;;;;;11.32;100.00;101271.75;4937284;29;20027;-78
2023/05/06 01:22:15;;;;;;;43.70;23.92;;;;;;;11.43;100.00;101276.44;4945932;29;20072;-78
2023/05/06 01:24:42;;;;;;;40.55;23.38;;;;;;;11.36;100.00;101264.19;4932644;29;20059;-77
2023/05/06 01:27:09;;;;;;;37.38;22.73;;;;;;;11.42;100.00;101268.34;4936398;29;20498;-77
2023/05/06 01:29:38;;;;;;;36.53;22.35;;;;;;;11.34;100.00;101269.78;4932939;29;20032;-78
2023/05/06 01:32:23;;;;;;;32.95;19.15;;;;;;;11.46;100.00;101270.75;4937791;29;20039;-78
2023/05/06 01:35:02;;;;;;;26.75;16.08;;;;;;;11.35;100.00;101273.41;4934441;29;20036;-77
2023/05/06 01:38:00;;;;;;;21.73;15.05;;;;;;;11.22;100.00;101273.47;4937259;29;20149;-77
2023/05/06 01:40:29;;;;;;;22.23;14.50;;;;;;;11.14;100.00;101276.78;4932030;29;20115;-77
2023/05/06 01:42:56;;;;;;;28.80;15.73;;;;;;;11.15;100.00;101267.56;4934637;29;20035;-77
2023/05/06 01:45:26;;;;;;;25.25;16.50;;;;;;;11.23;100.00;101272.44;4940006;29;20050;-77
2023/05/06 01:47:52;;;;;;;27.75;18.23;;;;;;;11.16;100.00;101269.31;4936961;29;20035;-77
2023/05/06 01:50:18;;;;;;;29.10;16.83;;;;;;;11.16;100.00;101277.53;4932233;29;20040;-77
2023/05/06 01:52:44;;;;;;;27.30;17.30;;;;;;;11.06;100.00;101290.16;4917293;29;20384;-78
2023/05/06 01:55:09;;;;;;;32.38;18.73;;;;;;;11.02;100.00;101283.19;4900522;29;20032;-78
2023/05/06 01:57:35;;;;;;;30.63;17.27;;;;;;;11.08;100.00;101282.69;4931677;29;20119;-78
2023/05/06 02:00:01;;;;;;;28.60;18.42;;;;;;;11.12;100.00;101281.50;4932199;29;20028;-78
2023/05/06 02:02:26;;;;;;;33.55;20.90;;;;;;;11.12;100.00;101284.25;4903987;29;20082;-77
2023/05/06 02:04:52;;;;;;;35.17;20.95;;;;;;;10.95;100.00;101281.88;4935515;29;20122;-78
2023/05/06 02:07:17;;;;;;;33.65;21.23;;;;;;;10.91;100.00;101280.34;4933911;29;20038;-78
2023/05/06 02:09:43;;;;;;;39.35;22.10;;;;;;;11.00;100.00;101285.13;4919705;29;20508;-77
2023/05/06 02:12:08;;;;;;;36.33;21.88;;;;;;;11.03;100.00;101291.28;4917265;29;20582;-78
2023/05/06 02:14:34;;;;;;;37.28;21.27;;;;;;;11.01;100.00;101286.91;4925231;29;20055;-78
2023/05/06 02:17:03;;;;;;;35.28;20.83;;;;;;;10.97;100.00;101289.00;4943635;29;20036;-78
2023/05/06 02:19:29;;;;;;;36.67;21.27;;;;;;;10.93;100.00;101292.06;4943829;29;20054;-77
2023/05/06 02:21:55;;;;;;;34.20;20.55;;;;;;;10.91;100.00;101291.31;4912549;29;20051;-78
2023/05/06 02:24:20;;;;;;;32.70;20.45;;;;;;;10.94;100.00;101291.97;4918496;29;20124;-78
2023/05/06 02:26:46;;;;;;;34.00;20.40;;;;;;;10.92;100.00;101301.25;4918655;29;20130;-78
2023/05/06 02:29:11;;;;;;;32.78;20.60;;;;;;;10.97;100.00;101299.06;4916139;29;20036;-77
2023/05/06 02:31:36;;;;;;;35.17;20.20;;;;;;;10.93;100.00;101281.97;4916046;29;20035;-78
2023/05/06 02:34:02;;;;;;;34.85;19.65;;;;;;;10.88;100.00;101289.66;4920461;29;21023;-78
2023/05/06 02:36:27;;;;;;;37.88;21.80;;;;;;;10.86;100.00;101294.38;4932498;29;20047;-79
2023/05/06 02:38:53;;;;;;;33.25;19.23;;;;;;;10.87;100.00;101287.03;4933376;29;20043;-78
2023/05/06 02:41:18;;;;;;;34.40;19.83;;;;;;;10.87;100.00;101285.19;4933182;29;20402;-78
2023/05/06 02:43:44;;;;;;;39.17;21.17;;;;;;;10.85;100.00;101285.31;4900406;29;20040;-78
2023/05/06 02:46:10;;;;;;;35.03;19.58;;;;;;;10.78;100.00;101278.50;4901846;29;20560;-79
2023/05/06 02:48:35;;;;;;;31.38;19.15;;;;;;;10.80;100.00;101287.47;4931917;29;20044;-78
2023/05/06 02:51:01;;;;;;;31.73;18.02;;;;;;;10.87;100.00;101285.19;4916551;29;20067;-79
2023/05/06 02:53:26;;;;;;;31.90;18.85;;;;;;;10.87;100.00;101287.03;4931741;29;20071;-78
2023/05/06 02:55:51;;;;;;;31.27;18.30;;;;;;;10.79;100.00;101287.59;4901210;29;20039;-78
2023/05/06 02:58:17;;;;;;;32.60;19.15;;;;;;;10.77;100.00;101284.09;4924809;29;20092;-78
2023/05/06 03:00:42;;;;;;;32.10;18.85;;;;;;;10.74;100.00;101281.56;4929195;29;20149;-78
2023/05/06 03:03:08;;;;;;;26.48;17.02;;;;;;;10.73;100.00;101277.09;4931420;29;20075;-78
2023/05/06 03:05:34;;;;;;;30.90;18.42;;;;;;;10.73;100.00;101282.59;4931435;29;20040;-78
2023/05/06 03:07:59;;;;;;;27.10;17.58;;;;;;;10.56;100.00;101283.78;4914037;29;20028;-78
2023/05/06 03:10:25;;;;;;;33.97;18.35;;;;;;;10.63;100.00;101277.75;4901679;29;20035;-77
2023/05/06 03:12:50;;;;;;;32.95;18.77;;;;;;;10.75;100.00;101280.59;4913223;29;20043;-78
2023/05/06 03:15:16;;;;;;;29.10;18.17;;;;;;;10.76;100.00;101285.97;4934474;29;20131;-78
2023/05/06 03:17:41;;;;;;;29.20;18.10;;;;;;;10.78;100.00;101285.84;4903437;29;20036;-78
2023/05/06 03:20:08;;;;;;;27.23;16.55;;;;;;;10.59;100.00;101279.00;4928164;29;20138;-78
2023/05/06 03:22:34;;;;;;;31.23;17.25;;;;;;;10.61;100.00;101278.88;4932040;29;20456;-78
2023/05/06 03:25:02;;;;;;;26.13;17.38;;;;;;;10.63;100.00;101276.91;4916440;29;20063;-78
2023/05/06 03:27:28;;;;;;;27.27;17.27;;;;;;;10.54;100.00;101277.56;4912212;29;20051;-78
2023/05/06 03:29:53;;;;;;;32.50;18.45;;;;;;;10.51;100.00;101275.94;4915342;29;20051;-78
2023/05/06 03:32:20;;;;;;;28.17;16.70;;;;;;;10.50;100.00;101282.38;4933356;29;20040;-78
2023/05/06 03:34:45;;;;;;;28.25;16.98;;;;;;;10.47;100.00;101278.00;4936441;29;20086;-78
2023/05/06 03:37:10;;;;;;;35.00;18.55;;;;;;;10.40;100.00;101275.81;4916645;29;20036;-78
2023/05/06 03:39:36;;;;;;;32.67;17.73;;;;;;;10.50;100.00;101276.91;4906822;29;20064;-78
2023/05/06 03:42:01;;;;;;;30.30;17.83;;;;;;;10.36;100.00;101275.16;4929624;29;20544;-78
2023/05/06 03:44:27;;;;;;;31.08;17.95;;;;;;;10.51;100.00;101275.03;4931548;29;20114;-78
2023/05/06 03:46:52;;;;;;;33.92;18.13;;;;;;;10.49;100.00;101275.16;4917472;29;20097;-78
2023/05/06 03:49:21;;;;;;;29.27;17.95;;;;;;;10.59;100.00;101270.78;4936032;29;20056;-77
2023/05/06 03:51:46;;;;;;;27.45;17.42;;;;;;;10.51;100.00;101275.03;4915011;29;20111;-77
2023/05/06 03:54:12;;;;;;;30.00;18.13;;;;;;;10.53;100.00;101268.47;4931582;29;20130;-78
2023/05/06 03:56:37;;;;;;;26.65;17.25;;;;;;;10.41;100.00;101269.34;4942650;29;20039;-78
2023/05/06 03:59:02;;;;;;;32.20;16.83;;;;;;;10.30;100.00;101270.09;4917781;29;20087;-77
2023/05/06 04:01:28;;;;;;;26.98;16.83;;;;;;;10.33;100.00;101274.50;4918652;29;20104;-78
2023/05/06 04:03:53;;;;;;;31.15;16.65;;;;;;;10.25;100.00;101277.75;4931057;29;20139;-78
2023/05/06 04:06:19;;;;;;;26.75;16.77;;;;;;;10.30;100.00;101286.53;4912059;29;20039;-78
2023/05/06 04:08:44;;;;;;;28.90;16.90;;;;;;;10.29;100.00;101277.41;4936879;29;20048;-78
2023/05/06 04:11:10;;;;;;;27.17;15.98;;;;;;;10.26;100.00;101276.75;4924706;29;20076;-78
2023/05/06 04:13:36;;;;;;;27.60;17.45;;;;;;;10.18;100.00;101282.78;4935468;29;20399;-78
2023/05/06 04:16:01;;;;;;;28.50;17.50;;;;;;;10.17;100.00;101277.44;4932450;29;20035;-78
2023/05/06 04:18:27;;;;;;;26.52;16.55;;;;;;;10.23;100.00;101276.97;4930451;29;20123;-78
2023/05/06 04:20:52;;;;;;;29.48;17.67;;;;;;;10.21;100.00;101273.47;4921678;29;20084;-77
2023/05/06 04:23:18;;;;;;;29.60;17.27;;;;;;;10.27;100.00;101281.25;4918297;29;20039;-78
2023/05/06 04:25:49;;;;;;;26.20;16.30;;;;;;;10.36;100.00;101280.63;4915151;29;20100;-77
2023/05/06 04:28:15;;;;;;;27.88;17.52;;;;;;;10.33;100.00;101286.34;4936375;29;20074;-78
2023/05/06 04:30:42;;;;;;;28.45;16.65;;;;;;;10.33;100.00;101280.88;4938582;29;20035;-78
2023/05/06 04:33:07;;;;;;;43.45;20.52;;;;;;;10.33;100.00;101285.44;4922062;29;20520;-78
2023/05/06 04:35:33;;;;;;;32.80;16.48;;;;;;;10.33;100.00;101289.06;4927028;29;20130;-77
2023/05/06 04:37:59;;;;;;;28.95;16.67;;;;;;;10.33;100.00;101294.56;4936077;29;20042;-77
2023/05/06 04:40:26;;;;;;;26.40;17.45;;;;;;;10.34;100.00;101288.06;4937865;29;20047;-77
2023/05/06 04:42:52;;;;;;;32.30;17.00;;;;;;;10.41;100.00;101302.19;4931491;29;20035;-78
2023/05/06 04:45:18;;;;;;;29.52;16.13;;;;;;;10.42;100.00;101302.09;4915567;29;20047;-78
2023/05/06 04:47:43;;;;;;;28.98;17.10;;;;;;;10.40;100.00;101304.06;4933903;29;20072;-79
2023/05/06 04:50:10;;;;;;;28.70;17.85;;;;;;;10.39;100.00;101296.81;4916571;29;20036;-79
2023/05/06 04:52:36;;;;;;;26.23;16.38;;;;;;;10.60;100.00;101297.16;4901781;29;20051;-79
2023/05/06 04:55:03;;;;;;;25.73;16.65;;;;;;;10.73;100.00;101299.88;4946033;29;20396;-78
2023/05/06 04:57:30;;;;;;;28.70;17.20;;;;;;;10.65;100.00;101308.66;4936778;29;20402;-78
2023/05/06 04:59:55;;;;;;;29.58;17.05;;;;;;;10.75;100.00;101308.84;4937013;29;20042;-79
2023/05/06 05:02:21;;;;;;;26.60;17.25;;;;;;;10.87;100.00;101311.69;4936232;29;20123;-79
2023/05/06 05:04:46;;;;;;;26.00;15.77;;;;;;;10.86;100.00;101319.03;4913073;29;20040;-78
2023/05/06 05:07:12;;;;;;;26.25;17.02;;;;;;;10.90;100.00;101317.81;4931260;29;20047;-80
2023/05/06 05:09:37;;;;;;;25.65;16.90;;;;;;;11.01;100.00;101311.56;4894218;29;20103;-79
2023/05/06 05:12:03;;;;;;;26.55;16.90;;;;;;;11.12;100.00;101321.75;4901624;29;20424;-79
2023/05/06 05:14:29;;;;;;;26.60;16.73;;;;;;;11.01;100.00;101323.38;4934309;29;20118;-79
2023/05/06 05:16:54;;;;;;;30.63;16.33;;;;;;;11.03;100.00;101332.38;4937696;29;20551;-79
2023/05/06 05:19:20;;;;;;;28.88;17.52;;;;;;;11.26;100.00;101331.66;4937010;29;20039;-78
2023/05/06 05:21:47;;;;;;;26.25;17.35;;;;;;;11.18;100.00;101324.91;4935648;29;20036;-79
2023/05/06 05:24:13;;;;;;;27.95;17.05;;;;;;;11.26;100.00;101335.28;4917465;29;20127;-79
2023/05/06 05:26:38;;;;;;;27.35;16.00;;;;;;;11.51;100.00;101338.91;4900007;29;20476;-77
2023/05/06 05:29:03;;;;;;;25.55;16.83;;;;;;;11.64;100.00;101348.00;4931875;29;20412;-80
2023/05/06 05:31:30;;;;;;;24.55;15.85;;;;;;;11.70;100.00;101349.38;4930024;29;20055;-79
2023/05/06 05:33:56;;;;;;;21.27;15.10;;;;;;;12.12;100.00;101345.22;4932601;29;20119;-79
2023/05/06 05:36:22;;;;;;;21.63;13.85;;;;;;;12.11;100.00;101348.09;4933406;29;20461;-79
2023/05/06 05:38:48;;;;;;;21.27;13.52;;;;;;;12.20;100.00;101349.22;4937890;29;20039;-79
2023/05/06 05:41:15;;;;;;;20.73;13.18;;;;;;;12.24;100.00;101353.50;4934258;29;20056;-79
2023/05/06 05:43:40;;;;;;;17.85;12.70;;;;;;;12.30;100.00;101348.41;4917172;29;20043;-80
2023/05/06 05:46:07;;;;;;;21.13;13.02;;;;;;;12.48;100.00;101345.22;4924018;29;20460;-78
2023/05/06 05:48:33;;;;;;;17.60;11.82;;;;;;;12.48;100.00;101340.59;4938167;29;20039;-80
2023/05/06 05:51:00;;;;;;;16.73;11.85;;;;;;;12.22;100.00;101350.88;4932274;29;20082;-79
2023/05/06 05:53:27;;;;;;;16.63;11.38;;;;;;;12.47;100.00;101359.94;4940222;29;20031;-79
2023/05/06 05:55:52;;;;;;;19.42;11.60;;;;;;;12.54;100.00;101355.69;4936270;29;20114;-78
2023/05/06 05:58:18;;;;;;;17.50;11.40;;;;;;;13.00;100.00;101352.00;4910427;29;20819;-79
2023/05/06 06:00:43;;;;;;;16.58;11.70;;;;;;;13.35;100.00;101356.50;4934413;28;20098;-79
2023/05/06 06:03:09;;;;;;;18.05;11.38;;;;;;;13.67;100.00;101357.56;4934833;29;20044;-78
2023/05/06 06:05:35;;;;;;;15.65;10.00;;;;;;;13.66;100.00;101356.69;4932923;29;20040;-79
2023/05/06 06:08:01;;;;;;;15.77;10.50;;;;;;;14.02;100.00;101351.81;4928034;29;20076;-80
2023/05/06 06:10:26;;;;;;;14.48;9.57;;;;;;;14.11;100.00;101353.75;4929568;29;20451;-80
2023/05/06 06:12:52;;;;;;;15.57;8.82;;;;;;;14.13;100.00;101357.28;4917939;29;20049;-82
2023/05/06 06:15:17;;;;;;;15.13;9.30;;;;;;;13.60;100.00;101344.31;4935016;29;20095;-82
2023/05/06 06:17:43;;;;;;;17.73;9.18;;;;;;;13.77;100.00;101356.66;4913321;29;20044;-80
2023/05/06 06:20:09;;;;;;;17.67;8.48;;;;;;;14.28;100.00;101351.41;4919236;29;20024;-81
2023/05/06 06:22:34;;;;;;;14.95;8.00;;;;;;;14.27;100.00;101352.44;4917715;29;20043;-81
2023/05/06 06:25:02;;;;;;;12.18;7.80;;;;;;;14.73;100.00;101342.91;4930741;29;20035;-81
2023/05/06 06:27:28;;;;;;;11.90;7.97;;;;;;;15.09;100.00;101351.66;4935743;29;20056;-79
2023/05/06 06:29:53;;;;;;;13.98;7.68;;;;;;;15.12;100.00;101345.84;4931324;29;20075;-80
2023/05/06 06:32:20;;;;;;;16.77;8.40;;;;;;;15.03;100.00;101343.91;4896339;29;20048;-80
2023/05/06 06:34:46;;;;;;;12.73;8.50;;;;;;;15.69;100.00;101359.06;4929462;29;20066;-80
2023/05/06 06:37:12;;;;;;;11.30;7.78;;;;;;;16.34;100.00;101352.00;4883064;29;20035;-77
2023/05/06 06:39:37;;;;;;;11.48;7.50;;;;;;;16.32;100.00;101348.53;4913481;29;20411;-78
2023/05/06 06:42:03;;;;;;;18.40;7.68;;;;;;;16.30;100.00;101355.25;4916743;29;20031;-78
2023/05/06 06:44:29;;;;;;;11.07;7.25;;;;;;;16.51;100.00;101358.69;4933927;29;20403;-78
2023/05/06 06:46:58;;;;;;;13.77;7.63;;;;;;;16.84;100.00;101347.25;4934347;29;20194;-78
2023/05/06 06:49:23;;;;;;;10.15;6.68;;;;;;;17.12;100.00;101352.84;4914938;29;20063;-78
2023/05/06 06:51:50;;;;;;;15.63;7.32;;;;;;;17.15;100.00;101366.41;4896578;29;20040;-78
2023/05/06 06:54:16;;;;;;;10.38;6.78;;;;;;;16.99;100.00;101367.06;4929586;29;20050;-81
2023/05/06 06:56:41;;;;;;;9.93;6.88;;;;;;;16.98;100.00;101357.88;4915672;29;20036;-79
2023/05/06 06:59:07;;;;;;;11.38;6.65;;;;;;;17.39;100.00;101368.63;4921873;29;20076;-80
2023/05/06 07:01:34;;;;;;;12.55;6.90;;;;;;;17.26;100.00;101364.28;4895406;29;20456;-80
2023/05/06 07:04:00;;;;;;;13.57;6.60;;;;;;;17.44;100.00;101371.78;4902615;29;20480;-79
2023/05/06 07:06:28;;;;;;;14.57;5.85;;;;;;;17.60;100.00;101365.59;4929810;29;20050;-79
2023/05/06 07:08:53;;;;;;;12.05;5.50;;;;;;;18.40;100.00;101374.06;4932679;29;20040;-79
2023/05/06 07:11:18;;;;;;;9.00;5.97;;;;;;;17.40;100.00;101373.16;4923888;29;20045;-78
2023/05/06 07:13:44;;;;;;;7.50;5.45;;;;;;;18.05;100.00;101364.72;4919125;29;20039;-78
2023/05/06 07:16:09;;;;;;;12.25;5.95;;;;;;;18.35;100.00;101365.34;4933875;29;20116;-79
2023/05/06 07:18:35;;;;;;;12.43;5.82;;;;;;;18.50;100.00;101366.50;4934793;29;20416;-77
2023/05/06 07:21:00;;;;;;;9.65;5.07;;;;;;;18.29;100.00;101369.63;4917948;29;20102;-77
2023/05/06 07:23:26;;;;;;;9.13;5.75;;;;;;;18.19;100.00;101366.94;4932465;29;20124;-77
2023/05/06 07:25:52;;;;;;;11.85;5.43;;;;;;;17.85;100.00;101372.28;4900861;29;20040;-78
2023/05/06 07:28:17;;;;;;;8.18;5.10;;;;;;;18.38;100.00;101376.09;4903317;29;20134;-78
2023/05/06 07:30:43;;;;;;;10.05;5.20;;;;;;;19.13;100.00;101375.63;4915072;29;20041;-78
2023/05/06 07:33:09;;;;;;;8.02;4.90;;;;;;;18.67;100.00;101375.81;4934772;29;20043;-78
2023/05/06 07:35:35;;;;;;;11.60;5.15;;;;;;;19.42;100.00;101371.63;4933180;29;20052;-78
2023/05/06 07:38:01;;;;;;;10.82;5.20;;;;;;;19.32;100.00;101382.00;4934421;29;20035;-78
2023/05/06 07:40:26;;;;;;;7.78;4.63;;;;;;;19.61;100.00;101373.25;4931554;29;20803;-78
2023/05/06 07:42:51;;;;;;;8.57;5.05;;;;;;;19.25;100.00;101374.31;4934480;29;20046;-78
2023/05/06 07:45:18;;;;;;;9.13;4.90;;;;;;;19.34;100.00;101383.56;4934365;29;20106;-78
2023/05/06 07:47:44;;;;;;;8.45;5.30;;;;;;;19.02;100.00;101381.47;4919101;29;20135;-78
2023/05/06 07:50:09;;;;;;;9.00;5.18;;;;;;;18.96;100.00;101384.91;4930150;29;20122;-78
2023/05/06 07:52:35;;;;;;;8.00;5.15;;;;;;;18.80;100.00;101388.41;4931189;29;20040;-78
2023/05/06 07:55:01;;;;;;;8.65;5.13;;;;;;;19.09;100.00;101391.75;4933463;29;20043;-78
2023/05/06 07:57:26;;;;;;;13.00;5.45;;;;;;;19.09;100.00;101388.97;4901543;29;20519;-79
2023/05/06 07:59:53;;;;;;;9.57;5.20;;;;;;;19.19;100.00;101391.63;4902665;29;20042;-78
2023/05/06 08:02:18;;;;;;;7.28;5.03;;;;;;;19.93;100.00;101394.75;4934315;29;20543;-78
2023/05/06 08:04:44;;;;;;;11.57;4.85;;;;;;;19.72;100.00;101394.31;4928575;29;20051;-79
2023/05/06 08:07:10;;;;;;;7.50;4.10;;;;;;;20.47;100.00;101396.22;4929304;28;20056;-79
2023/05/06 08:09:36;;;;;;;6.38;4.25;;;;;;;19.93;100.00;101394.75;4913982;29;20074;-80
2023/05/06 08:12:02;;;;;;;6.05;3.97;;;;;;;20.48;100.00;101390.50;4917820;29;20028;-79
2023/05/06 08:14:28;;;;;;;9.13;4.60;;;;;;;20.36;100.00;101391.84;4931833;29;20089;-79
2023/05/06 08:16:54;;;;;;;6.75;4.63;;;;;;;19.98;100.00;101392.31;4933535;29;20115;-79
2023/05/06 08:19:20;;;;;;;9.15;4.38;;;;;;;20.21;100.00;101394.44;4930918;29;20043;-79
2023/05/06 08:21:47;;;;;;;6.75;4.65;;;;;;;20.33;100.00;101392.19;4933549;29;20044;-79
2023/05/06 08:24:13;;;;;;;9.00;4.47;;;;;;;20.28;100.00;101400.19;4937318;29;20103;-79
2023/05/06 08:26:40;;;;;;;5.30;3.83;;;;;;;21.03;100.00;101394.44;4933707;28;20074;-79
2023/05/06 08:29:06;;;;;;;6.70;4.32;;;;;;;20.27;100.00;101391.00;4916475;29;20031;-79
2023/05/06 08:31:32;;;;;;;7.70;3.78;;;;;;;19.79;100.00;101395.38;4930335;29;20035;-79
2023/05/06 08:33:58;;;;;;;6.72;4.03;;;;;;;20.42;100.00;101393.09;4906716;29;20488;-78
2023/05/06 08:36:24;;;;;;;13.60;4.30;;;;;;;20.88;100.00;101376.75;4932265;29;20047;-78
2023/05/06 08:38:52;;;;;;;8.27;4.32;;;;;;;20.28;100.00;101380.72;4934919;29;20035;-78
2023/05/06 08:41:22;;;;;;;4.85;3.88;;;;;;;20.39;100.00;101388.72;4923181;29;20095;-79
2023/05/06 08:43:49;;;;;;;4.93;3.83;;;;;;;20.31;100.00;101384.03;4915550;29;20075;-79
2023/05/06 08:46:16;;;;;;;9.20;4.03;;;;;;;19.86;100.00;101377.00;4913239;29;20460;-79
2023/05/06 08:48:42;;;;;;;8.45;4.10;;;;;;;20.60;100.00;101373.44;4914882;29;20047;-78
2023/05/06 08:51:08;;;;;;;5.65;3.90;;;;;;;20.60;100.00;101373.44;4893732;29;20088;-79
2023/05/06 08:53:34;;;;;;;5.38;3.50;;;;;;;20.32;100.00;101374.66;4910288;29;20556;-79
2023/05/06 08:56:07;;;;;;;4.43;2.70;;;;;;;20.87;98.23;101381.44;4896944;29;20040;-79
2023/05/06 08:58:42;;;;;;;4.70;3.40;;;;;;;20.69;100.00;101377.97;4913869;29;20044;-79
2023/05/06 09:01:08;;;;;;;7.93;3.83;;;;;;;19.81;100.00;101371.09;4901252;29;20048;-77
2023/05/06 09:03:34;;;;;;;6.15;3.17;;;;;;;20.95;100.00;101374.13;4916286;29;20052;-78
2023/05/06 09:05:59;;;;;;;6.00;3.95;;;;;;;21.06;100.00;101369.03;4897255;29;20175;-77
2023/05/06 09:08:25;;;;;;;10.20;4.13;;;;;;;20.72;100.00;101370.13;4912862;29;20119;-77
2023/05/06 09:10:50;;;;;;;6.15;3.63;;;;;;;21.62;89.30;101368.16;4916687;29;20123;-77
2023/05/06 09:13:18;;;;;;;4.78;3.50;;;;;;;21.59;90.36;101366.59;4918161;29;20048;-77
2023/05/06 09:15:46;;;;;;;4.95;3.05;;;;;;;22.16;85.91;101370.97;4915134;29;20055;-77
2023/05/06 09:18:12;;;;;;;4.10;2.85;;;;;;;21.53;96.64;101369.25;4916555;29;20063;-78
2023/05/06 09:20:43;;;;;;;5.97;3.13;;;;;;;21.46;95.95;101357.94;4904071;29;20032;-77
2023/05/06 09:23:10;;;;;;;4.47;2.75;;;;;;;20.98;99.61;101359.84;4915238;29;20043;-78
2023/05/06 09:25:36;;;;;;;8.70;3.45;;;;;;;21.49;93.12;101354.81;4917424;29;20046;-78
2023/05/06 09:28:06;;;;;;;3.58;2.95;;;;;;;21.43;94.34;101353.59;4918730;29;20052;-78
2023/05/06 09:30:32;;;;;;;6.60;3.78;;;;;;;21.17;96.22;101350.19;4906353;29;20036;-78
2023/05/06 09:33:02;;;;;;;4.15;3.00;;;;;;;21.19;100.00;101349.00;4912350;29;20031;-78
2023/05/06 09:35:28;;;;;;;6.45;3.50;;;;;;;21.16;92.02;101356.84;4894221;29;20036;-77
2023/05/06 09:37:54;;;;;;;5.93;3.20;;;;;;;21.42;98.57;101357.44;4901570;29;20047;-78
2023/05/06 09:40:23;;;;;;;5.28;2.92;;;;;;;21.90;88.02;101354.59;4914347;29;20044;-78
2023/05/06 09:42:50;;;;;;;6.15;2.17;;;;;;;21.85;87.15;101360.72;4916115;29;20044;-78
2023/05/06 09:45:16;;;;;;;5.47;3.17;;;;;;;21.24;100.00;101354.03;4916179;29;20056;-78
2023/05/06 09:47:43;;;;;;;6.03;3.30;;;;;;;20.96;91.83;101361.94;4900434;29;20043;-78
2023/05/06 09:50:09;;;;;;;6.57;3.20;;;;;;;21.29;95.35;101351.56;4901088;29;20445;-78
2023/05/06 09:52:36;;;;;;;6.57;3.08;;;;;;;21.14;94.87;101340.31;4918925;29;20048;-79
2023/05/06 09:55:02;;;;;;;5.15;2.72;;;;;;;21.06;96.25;101346.75;4910758;29;20488;-78
2023/05/06 09:57:31;;;;;;;7.05;2.95;;;;;;;22.09;83.27;101344.88;4915822;29;20492;-78
2023/05/06 09:59:57;;;;;;;5.50;2.95;;;;;;;22.34;82.25;101350.31;4911404;29;20040;-77
2023/05/06 10:02:22;;;;;;;5.43;2.92;;;;;;;21.75;86.45;101353.66;4912207;29;20044;-78
2023/05/06 10:04:48;;;;;;;5.72;2.70;;;;;;;21.64;90.85;101343.75;4896952;29;20184;-77
2023/05/06 10:07:18;;;;;;;10.07;3.25;;;;;;;22.16;76.49;101343.06;4910341;29;20535;-75
2023/05/06 10:09:45;;;;;;;7.28;2.95;;;;;;;23.22;69.02;101343.16;4913724;29;20048;-78
2023/05/06 10:12:12;;;;;;;8.00;3.00;;;;;;;23.89;67.65;101331.97;4915890;29;20062;-76
2023/05/06 10:14:38;;;;;;;5.50;3.40;;;;;;;22.96;69.94;101346.41;4915188;29;20040;-77
2023/05/06 10:17:11;;;;;;;10.07;3.50;;;;;;;23.39;70.44;101335.44;4884460;29;20171;-77
2023/05/06 10:19:44;;;;;;;10.18;2.83;;;;;;;22.69;82.41;101329.19;4916744;29;20521;-77
2023/05/06 10:22:29;;;;;;;1.92;1.42;;;;;;;22.27;69.33;101339.00;4917960;29;20111;-77
2023/05/06 10:24:58;;;;;;;7.65;2.00;;;;;;;22.25;73.68;101323.47;4914365;29;20052;-77
2023/05/06 10:27:24;;;;;;;7.05;1.92;;;;;;;22.37;73.57;101331.25;4898050;29;20059;-79
2023/05/06 10:29:55;;;;;;;4.32;1.70;;;;;;;22.19;72.16;101331.56;4899439;29;20408;-77
2023/05/06 10:32:23;;;;;;;2.70;1.80;;;;;;;22.32;69.16;101324.53;4901430;29;20096;-77
2023/05/06 10:34:54;;;;;;;3.88;2.22;;;;;;;22.45;70.69;101321.97;4896057;29;20040;-77
2023/05/06 10:37:25;;;;;;;5.78;1.98;;;;;;;22.51;74.23;101328.69;4913669;29;20031;-77
2023/05/06 10:39:55;;;;;;;4.22;2.45;;;;;;;22.71;70.70;101326.22;4896298;29;20499;-77
2023/05/06 10:42:27;;;;;;;3.97;1.77;;;;;;;22.86;64.61;101326.28;4915031;29;20096;-77
2023/05/06 10:45:00;;;;;;;6.93;2.28;;;;;;;22.49;67.05;101323.28;4912835;29;20408;-78
2023/05/06 10:47:26;;;;;;;5.05;2.47;;;;;;;21.75;71.79;101317.41;4913252;29;20046;-77
2023/05/06 10:50:20;;;;;;;1.88;1.17;;;;;;;21.71;76.74;101321.59;4913038;29;20032;-76
2023/05/06 10:52:47;;;;;;;3.30;1.38;;;;;;;21.85;73.29;101313.31;4915355;29;20043;-76
2023/05/06 10:55:42;;;;;;;2.45;1.20;;;;;;;21.37;72.99;101317.25;4912729;29;20050;-76
2023/05/06 10:58:15;;;;;;;6.70;1.30;;;;;;;21.54;75.89;101309.69;4893480;29;20053;-77
2023/05/06 11:00:41;;;;;;;5.95;1.75;;;;;;;21.02;76.09;101305.53;4913675;29;20055;-76
2023/05/06 11:03:09;;;;;;;7.30;1.80;;;;;;;21.48;76.96;101309.38;4914677;29;20153;-76
2023/05/06 11:05:52;;;;;;;4.57;1.83;;;;;;;21.87;74.67;101301.97;4915529;29;20496;-77
2023/05/06 11:08:25;;;;;;;3.47;1.83;;;;;;;21.57;77.48;101300.97;4913331;29;20488;-76
2023/05/06 11:10:54;;;;;;;3.50;1.67;;;;;;;21.82;76.62;101299.78;4897389;29;20047;-76